Fairport, Missouri
Current Conditions -  °F | °C
As of 5:53 PM on Friday 31 Oct 2014 (Local Time) from KSTJ Reporting Station
Clear Clear  
Wind Chill:   Ceiling: Unl
Heat Index:   Visibility: 7mi
Dew Point: -8°   Wind: 8mph
Humidity: 35%   Direction: 360°N
Pressure: 30.46"   Gusts: NA
Location:  39.99°N, 94.35°W
Report Text: KSTJ 312253Z AUTO 36007KT 7SM CLR 06/M08 A3046 RMK AO2 SLP320 T00611083
Loading
Personal Weather Stations






























Interactive Weather Map
Tropical Storm Tracking
New forecast layout! Learn more

10-Day Weather Forecast

Advertisements
Track Severe Weather on mobile